sensor_id;sensor_type;location;lat;lon;timestamp;P1;durP1;ratioP1;P2;durP2;ratioP2
71351;SDS011;59159;51.652;4.864;2022-08-14T00:02:02;5.88;;;2.85;;
71351;SDS011;59159;51.652;4.864;2022-08-14T00:04:32;6.10;;;3.30;;
71351;SDS011;59159;51.652;4.864;2022-08-14T00:06:58;5.57;;;3.23;;
71351;SDS011;59159;51.652;4.864;2022-08-14T00:09:24;7.00;;;3.00;;
71351;SDS011;59159;51.652;4.864;2022-08-14T00:11:50;8.18;;;2.95;;
71351;SDS011;59159;51.652;4.864;2022-08-14T00:14:16;6.17;;;3.20;;
71351;SDS011;59159;51.652;4.864;2022-08-14T00:16:42;5.70;;;3.00;;
71351;SDS011;59159;51.652;4.864;2022-08-14T00:19:09;8.20;;;3.13;;
71351;SDS011;59159;51.652;4.864;2022-08-14T00:21:35;6.45;;;2.90;;
71351;SDS011;59159;51.652;4.864;2022-08-14T00:24:01;6.20;;;3.07;;
71351;SDS011;59159;51.652;4.864;2022-08-14T00:26:28;7.38;;;3.22;;
71351;SDS011;59159;51.652;4.864;2022-08-14T00:28:54;6.00;;;3.10;;
71351;SDS011;59159;51.652;4.864;2022-08-14T00:31:20;8.93;;;3.20;;
71351;SDS011;59159;51.652;4.864;2022-08-14T00:33:46;7.15;;;3.63;;
71351;SDS011;59159;51.652;4.864;2022-08-14T00:36:12;8.07;;;3.75;;
71351;SDS011;59159;51.652;4.864;2022-08-14T00:38:38;6.83;;;4.57;;
71351;SDS011;59159;51.652;4.864;2022-08-14T00:41:05;7.78;;;4.60;;
71351;SDS011;59159;51.652;4.864;2022-08-14T00:43:32;8.63;;;4.05;;
71351;SDS011;59159;51.652;4.864;2022-08-14T00:46:05;5.80;;;3.65;;
71351;SDS011;59159;51.652;4.864;2022-08-14T00:48:31;6.40;;;4.03;;
71351;SDS011;59159;51.652;4.864;2022-08-14T00:50:57;7.32;;;3.58;;
71351;SDS011;59159;51.652;4.864;2022-08-14T00:53:23;7.03;;;3.90;;
71351;SDS011;59159;51.652;4.864;2022-08-14T00:55:50;7.67;;;4.37;;
71351;SDS011;59159;51.652;4.864;2022-08-14T00:58:19;7.57;;;3.97;;
71351;SDS011;59159;51.652;4.864;2022-08-14T01:00:54;7.40;;;4.18;;
71351;SDS011;59159;51.652;4.864;2022-08-14T01:03:20;8.10;;;4.53;;
71351;SDS011;59159;51.652;4.864;2022-08-14T01:05:47;7.13;;;4.00;;
71351;SDS011;59159;51.652;4.864;2022-08-14T01:08:20;6.60;;;4.00;;
71351;SDS011;59159;51.652;4.864;2022-08-14T01:10:47;7.45;;;3.97;;
71351;SDS011;59159;51.652;4.864;2022-08-14T01:13:23;7.30;;;4.20;;
71351;SDS011;59159;51.652;4.864;2022-08-14T01:15:51;7.47;;;4.25;;
71351;SDS011;59159;51.652;4.864;2022-08-14T01:18:17;8.57;;;4.70;;
71351;SDS011;59159;51.652;4.864;2022-08-14T01:21:03;8.80;;;4.53;;
71351;SDS011;59159;51.652;4.864;2022-08-14T01:23:46;7.22;;;4.22;;
71351;SDS011;59159;51.652;4.864;2022-08-14T01:26:12;9.18;;;4.55;;
71351;SDS011;59159;51.652;4.864;2022-08-14T01:28:40;9.40;;;5.23;;
71351;SDS011;59159;51.652;4.864;2022-08-14T01:31:17;9.52;;;4.60;;
71351;SDS011;59159;51.652;4.864;2022-08-14T01:33:44;8.60;;;4.93;;
71351;SDS011;59159;51.652;4.864;2022-08-14T01:36:12;7.32;;;4.78;;
71351;SDS011;59159;51.652;4.864;2022-08-14T01:38:40;8.57;;;4.83;;
71351;SDS011;59159;51.652;4.864;2022-08-14T01:41:08;7.18;;;4.70;;
71351;SDS011;59159;51.652;4.864;2022-08-14T01:46:09;8.47;;;5.57;;
71351;SDS011;59159;51.652;4.864;2022-08-14T01:48:35;8.18;;;4.65;;
71351;SDS011;59159;51.652;4.864;2022-08-14T01:51:02;7.78;;;4.30;;
71351;SDS011;59159;51.652;4.864;2022-08-14T01:53:28;7.17;;;4.33;;
71351;SDS011;59159;51.652;4.864;2022-08-14T01:55:58;8.20;;;4.28;;
71351;SDS011;59159;51.652;4.864;2022-08-14T01:58:24;8.05;;;4.43;;
71351;SDS011;59159;51.652;4.864;2022-08-14T02:00:52;8.10;;;4.32;;
71351;SDS011;59159;51.652;4.864;2022-08-14T02:03:18;6.67;;;3.77;;
71351;SDS011;59159;51.652;4.864;2022-08-14T02:05:44;7.28;;;3.78;;
71351;SDS011;59159;51.652;4.864;2022-08-14T02:08:10;6.68;;;3.95;;
71351;SDS011;59159;51.652;4.864;2022-08-14T02:10:40;7.70;;;4.57;;
71351;SDS011;59159;51.652;4.864;2022-08-14T02:13:06;7.13;;;3.75;;
71351;SDS011;59159;51.652;4.864;2022-08-14T02:15:33;7.20;;;4.05;;
71351;SDS011;59159;51.652;4.864;2022-08-14T02:17:59;7.20;;;3.93;;
71351;SDS011;59159;51.652;4.864;2022-08-14T02:20:27;8.32;;;3.97;;
71351;SDS011;59159;51.652;4.864;2022-08-14T02:22:53;6.50;;;3.80;;
71351;SDS011;59159;51.652;4.864;2022-08-14T02:25:19;7.55;;;4.22;;
71351;SDS011;59159;51.652;4.864;2022-08-14T02:27:45;8.73;;;4.80;;
71351;SDS011;59159;51.652;4.864;2022-08-14T02:30:13;6.47;;;4.03;;
71351;SDS011;59159;51.652;4.864;2022-08-14T02:32:39;7.05;;;4.32;;
71351;SDS011;59159;51.652;4.864;2022-08-14T02:35:06;7.07;;;4.33;;
71351;SDS011;59159;51.652;4.864;2022-08-14T02:37:35;7.00;;;4.63;;
71351;SDS011;59159;51.652;4.864;2022-08-14T02:40:03;7.95;;;4.03;;
71351;SDS011;59159;51.652;4.864;2022-08-14T02:42:29;6.17;;;3.73;;
71351;SDS011;59159;51.652;4.864;2022-08-14T02:44:56;8.57;;;4.30;;
71351;SDS011;59159;51.652;4.864;2022-08-14T02:47:22;6.75;;;3.75;;
71351;SDS011;59159;51.652;4.864;2022-08-14T02:49:49;6.80;;;4.05;;
71351;SDS011;59159;51.652;4.864;2022-08-14T02:52:15;6.57;;;4.37;;
71351;SDS011;59159;51.652;4.864;2022-08-14T02:54:41;7.93;;;4.38;;
71351;SDS011;59159;51.652;4.864;2022-08-14T02:57:07;6.38;;;3.72;;
71351;SDS011;59159;51.652;4.864;2022-08-14T02:59:34;8.07;;;3.83;;
71351;SDS011;59159;51.652;4.864;2022-08-14T03:02:03;7.40;;;3.97;;
71351;SDS011;59159;51.652;4.864;2022-08-14T03:04:29;6.47;;;4.10;;
71351;SDS011;59159;51.652;4.864;2022-08-14T03:06:55;11.30;;;4.63;;
71351;SDS011;59159;51.652;4.864;2022-08-14T03:09:21;7.70;;;4.07;;
71351;SDS011;59159;51.652;4.864;2022-08-14T03:11:48;10.02;;;5.00;;
71351;SDS011;59159;51.652;4.864;2022-08-14T03:14:14;7.63;;;4.13;;
71351;SDS011;59159;51.652;4.864;2022-08-14T03:16:40;7.60;;;4.10;;
71351;SDS011;59159;51.652;4.864;2022-08-14T03:19:06;7.50;;;4.35;;
71351;SDS011;59159;51.652;4.864;2022-08-14T03:21:33;7.80;;;4.60;;
71351;SDS011;59159;51.652;4.864;2022-08-14T03:24:00;7.67;;;4.23;;
71351;SDS011;59159;51.652;4.864;2022-08-14T03:26:36;8.45;;;4.60;;
71351;SDS011;59159;51.652;4.864;2022-08-14T03:29:04;6.30;;;4.13;;
71351;SDS011;59159;51.652;4.864;2022-08-14T03:31:30;6.97;;;4.40;;
71351;SDS011;59159;51.652;4.864;2022-08-14T03:33:56;7.57;;;4.50;;
71351;SDS011;59159;51.652;4.864;2022-08-14T03:36:22;7.75;;;4.45;;
71351;SDS011;59159;51.652;4.864;2022-08-14T03:38:49;6.95;;;4.30;;
71351;SDS011;59159;51.652;4.864;2022-08-14T03:43:47;8.48;;;4.47;;
71351;SDS011;59159;51.652;4.864;2022-08-14T03:46:19;7.00;;;4.53;;
71351;SDS011;59159;51.652;4.864;2022-08-14T03:48:46;8.73;;;4.77;;
71351;SDS011;59159;51.652;4.864;2022-08-14T03:51:15;7.72;;;4.07;;
71351;SDS011;59159;51.652;4.864;2022-08-14T03:53:42;6.95;;;4.18;;
71351;SDS011;59159;51.652;4.864;2022-08-14T03:56:09;8.27;;;4.23;;
71351;SDS011;59159;51.652;4.864;2022-08-14T03:58:43;8.05;;;4.60;;
71351;SDS011;59159;51.652;4.864;2022-08-14T04:01:10;7.97;;;4.00;;
71351;SDS011;59159;51.652;4.864;2022-08-14T04:03:36;6.90;;;4.70;;
71351;SDS011;59159;51.652;4.864;2022-08-14T04:06:03;8.20;;;5.20;;
71351;SDS011;59159;51.652;4.864;2022-08-14T04:08:29;8.55;;;4.70;;
71351;SDS011;59159;51.652;4.864;2022-08-14T04:10:55;7.72;;;4.88;;
71351;SDS011;59159;51.652;4.864;2022-08-14T04:13:21;9.27;;;4.13;;
71351;SDS011;59159;51.652;4.864;2022-08-14T04:15:47;7.68;;;4.63;;
71351;SDS011;59159;51.652;4.864;2022-08-14T04:18:13;7.68;;;4.50;;
71351;SDS011;59159;51.652;4.864;2022-08-14T04:20:40;9.03;;;4.50;;
71351;SDS011;59159;51.652;4.864;2022-08-14T04:23:07;8.32;;;4.07;;
71351;SDS011;59159;51.652;4.864;2022-08-14T04:25:33;8.02;;;5.25;;
71351;SDS011;59159;51.652;4.864;2022-08-14T04:28:00;7.85;;;4.82;;
71351;SDS011;59159;51.652;4.864;2022-08-14T04:30:27;7.43;;;4.80;;
71351;SDS011;59159;51.652;4.864;2022-08-14T04:32:54;7.97;;;4.50;;
71351;SDS011;59159;51.652;4.864;2022-08-14T04:35:20;7.40;;;5.00;;
71351;SDS011;59159;51.652;4.864;2022-08-14T04:37:46;8.27;;;4.73;;
71351;SDS011;59159;51.652;4.864;2022-08-14T04:40:31;7.93;;;5.10;;
71351;SDS011;59159;51.652;4.864;2022-08-14T04:43:16;9.52;;;5.10;;
71351;SDS011;59159;51.652;4.864;2022-08-14T04:46:04;7.60;;;4.90;;
71351;SDS011;59159;51.652;4.864;2022-08-14T04:48:30;8.32;;;4.95;;
71351;SDS011;59159;51.652;4.864;2022-08-14T04:50:56;7.53;;;4.95;;
71351;SDS011;59159;51.652;4.864;2022-08-14T04:53:23;8.18;;;4.60;;
71351;SDS011;59159;51.652;4.864;2022-08-14T04:55:51;8.50;;;5.10;;
71351;SDS011;59159;51.652;4.864;2022-08-14T04:58:24;9.20;;;5.20;;
71351;SDS011;59159;51.652;4.864;2022-08-14T05:00:50;8.82;;;4.80;;
71351;SDS011;59159;51.652;4.864;2022-08-14T05:03:17;8.20;;;5.10;;
71351;SDS011;59159;51.652;4.864;2022-08-14T05:05:48;9.13;;;4.85;;
71351;SDS011;59159;51.652;4.864;2022-08-14T05:08:14;9.70;;;5.15;;
71351;SDS011;59159;51.652;4.864;2022-08-14T05:10:41;9.53;;;5.00;;
71351;SDS011;59159;51.652;4.864;2022-08-14T05:13:07;10.20;;;6.70;;
71351;SDS011;59159;51.652;4.864;2022-08-14T05:15:34;13.80;;;8.15;;
71351;SDS011;59159;51.652;4.864;2022-08-14T05:18:10;10.82;;;7.85;;
71351;SDS011;59159;51.652;4.864;2022-08-14T05:20:44;12.00;;;7.50;;
71351;SDS011;59159;51.652;4.864;2022-08-14T05:23:11;10.02;;;7.60;;
71351;SDS011;59159;51.652;4.864;2022-08-14T05:25:38;13.23;;;7.60;;
71351;SDS011;59159;51.652;4.864;2022-08-14T05:28:11;11.97;;;7.10;;
71351;SDS011;59159;51.652;4.864;2022-08-14T05:30:38;12.18;;;6.93;;
71351;SDS011;59159;51.652;4.864;2022-08-14T05:33:07;12.10;;;7.68;;
71351;SDS011;59159;51.652;4.864;2022-08-14T05:35:33;10.87;;;7.37;;
71351;SDS011;59159;51.652;4.864;2022-08-14T05:37:59;14.27;;;7.93;;
71351;SDS011;59159;51.652;4.864;2022-08-14T05:40:25;14.73;;;7.82;;
71351;SDS011;59159;51.652;4.864;2022-08-14T05:42:51;10.77;;;7.70;;
71351;SDS011;59159;51.652;4.864;2022-08-14T05:45:18;11.50;;;7.83;;
71351;SDS011;59159;51.652;4.864;2022-08-14T05:47:44;13.30;;;7.88;;
71351;SDS011;59159;51.652;4.864;2022-08-14T05:50:11;11.90;;;7.57;;
71351;SDS011;59159;51.652;4.864;2022-08-14T05:52:37;12.23;;;7.70;;
71351;SDS011;59159;51.652;4.864;2022-08-14T05:55:04;12.45;;;8.10;;
71351;SDS011;59159;51.652;4.864;2022-08-14T05:57:30;12.82;;;7.85;;
71351;SDS011;59159;51.652;4.864;2022-08-14T05:59:56;12.67;;;8.30;;
71351;SDS011;59159;51.652;4.864;2022-08-14T06:02:22;11.73;;;8.40;;
71351;SDS011;59159;51.652;4.864;2022-08-14T06:04:48;12.68;;;7.82;;
71351;SDS011;59159;51.652;4.864;2022-08-14T06:07:14;11.30;;;7.97;;
71351;SDS011;59159;51.652;4.864;2022-08-14T06:09:40;13.07;;;8.37;;
71351;SDS011;59159;51.652;4.864;2022-08-14T06:12:07;14.27;;;7.25;;
71351;SDS011;59159;51.652;4.864;2022-08-14T06:14:33;10.60;;;7.43;;
71351;SDS011;59159;51.652;4.864;2022-08-14T06:16:59;13.50;;;7.60;;
71351;SDS011;59159;51.652;4.864;2022-08-14T06:19:25;11.48;;;7.35;;
71351;SDS011;59159;51.652;4.864;2022-08-14T06:21:51;9.80;;;5.80;;
71351;SDS011;59159;51.652;4.864;2022-08-14T06:24:17;11.13;;;5.83;;
71351;SDS011;59159;51.652;4.864;2022-08-14T06:26:44;7.88;;;5.07;;
71351;SDS011;59159;51.652;4.864;2022-08-14T06:29:11;12.13;;;6.55;;
71351;SDS011;59159;51.652;4.864;2022-08-14T06:31:37;12.50;;;7.07;;
71351;SDS011;59159;51.652;4.864;2022-08-14T06:34:03;9.67;;;6.50;;
71351;SDS011;59159;51.652;4.864;2022-08-14T06:36:29;12.77;;;6.03;;
71351;SDS011;59159;51.652;4.864;2022-08-14T06:38:58;9.07;;;5.53;;
71351;SDS011;59159;51.652;4.864;2022-08-14T06:41:24;17.60;;;5.10;;
71351;SDS011;59159;51.652;4.864;2022-08-14T06:43:50;8.23;;;5.22;;
71351;SDS011;59159;51.652;4.864;2022-08-14T06:46:16;11.13;;;5.00;;
71351;SDS011;59159;51.652;4.864;2022-08-14T06:48:42;7.43;;;4.73;;
71351;SDS011;59159;51.652;4.864;2022-08-14T06:51:08;8.18;;;4.47;;
71351;SDS011;59159;51.652;4.864;2022-08-14T06:53:34;9.98;;;5.15;;
71351;SDS011;59159;51.652;4.864;2022-08-14T06:56:00;7.63;;;4.80;;
71351;SDS011;59159;51.652;4.864;2022-08-14T06:58:26;8.93;;;4.73;;
71351;SDS011;59159;51.652;4.864;2022-08-14T07:00:52;7.70;;;4.63;;
71351;SDS011;59159;51.652;4.864;2022-08-14T07:03:36;8.13;;;4.60;;
71351;SDS011;59159;51.652;4.864;2022-08-14T07:06:28;8.20;;;4.70;;
71351;SDS011;59159;51.652;4.864;2022-08-14T07:08:54;7.53;;;4.50;;
71351;SDS011;59159;51.652;4.864;2022-08-14T07:11:20;8.45;;;4.35;;
71351;SDS011;59159;51.652;4.864;2022-08-14T07:13:46;8.13;;;4.73;;
71351;SDS011;59159;51.652;4.864;2022-08-14T07:16:12;9.82;;;5.28;;
71351;SDS011;59159;51.652;4.864;2022-08-14T07:18:39;9.10;;;4.88;;
71351;SDS011;59159;51.652;4.864;2022-08-14T07:21:05;9.00;;;5.05;;
71351;SDS011;59159;51.652;4.864;2022-08-14T07:23:31;9.53;;;5.43;;
71351;SDS011;59159;51.652;4.864;2022-08-14T07:25:58;8.82;;;5.68;;
71351;SDS011;59159;51.652;4.864;2022-08-14T07:28:32;8.80;;;5.28;;
71351;SDS011;59159;51.652;4.864;2022-08-14T07:30:59;9.87;;;5.70;;
71351;SDS011;59159;51.652;4.864;2022-08-14T07:33:30;8.70;;;5.72;;
71351;SDS011;59159;51.652;4.864;2022-08-14T07:35:58;8.75;;;6.28;;
71351;SDS011;59159;51.652;4.864;2022-08-14T07:38:25;10.60;;;6.53;;
71351;SDS011;59159;51.652;4.864;2022-08-14T07:40:52;10.15;;;6.20;;
71351;SDS011;59159;51.652;4.864;2022-08-14T07:43:18;8.80;;;6.57;;
71351;SDS011;59159;51.652;4.864;2022-08-14T07:45:44;10.68;;;7.35;;
71351;SDS011;59159;51.652;4.864;2022-08-14T07:48:10;10.60;;;6.77;;
71351;SDS011;59159;51.652;4.864;2022-08-14T07:50:36;12.05;;;7.50;;
71351;SDS011;59159;51.652;4.864;2022-08-14T07:53:03;12.10;;;7.68;;
71351;SDS011;59159;51.652;4.864;2022-08-14T07:55:30;13.27;;;7.47;;
71351;SDS011;59159;51.652;4.864;2022-08-14T07:57:57;12.10;;;8.00;;
71351;SDS011;59159;51.652;4.864;2022-08-14T08:00:23;12.23;;;7.97;;
71351;SDS011;59159;51.652;4.864;2022-08-14T08:02:50;14.13;;;7.93;;
71351;SDS011;59159;51.652;4.864;2022-08-14T08:05:17;13.48;;;8.77;;
71351;SDS011;59159;51.652;4.864;2022-08-14T08:07:43;14.05;;;8.32;;
71351;SDS011;59159;51.652;4.864;2022-08-14T08:10:19;12.95;;;9.32;;
71351;SDS011;59159;51.652;4.864;2022-08-14T08:13:02;17.43;;;9.93;;
71351;SDS011;59159;51.652;4.864;2022-08-14T08:15:30;15.73;;;9.80;;
71351;SDS011;59159;51.652;4.864;2022-08-14T08:17:57;14.05;;;9.45;;
71351;SDS011;59159;51.652;4.864;2022-08-14T08:20:24;16.07;;;10.07;;
71351;SDS011;59159;51.652;4.864;2022-08-14T08:22:51;16.70;;;10.13;;
71351;SDS011;59159;51.652;4.864;2022-08-14T08:25:19;16.42;;;9.77;;
71351;SDS011;59159;51.652;4.864;2022-08-14T08:27:59;18.00;;;10.83;;
71351;SDS011;59159;51.652;4.864;2022-08-14T08:30:26;15.52;;;10.35;;
71351;SDS011;59159;51.652;4.864;2022-08-14T08:32:53;19.00;;;10.45;;
71351;SDS011;59159;51.652;4.864;2022-08-14T08:35:20;20.67;;;11.73;;
71351;SDS011;59159;51.652;4.864;2022-08-14T08:37:47;19.70;;;10.50;;
71351;SDS011;59159;51.652;4.864;2022-08-14T08:42:48;18.85;;;11.40;;
71351;SDS011;59159;51.652;4.864;2022-08-14T08:45:15;20.10;;;11.77;;
71351;SDS011;59159;51.652;4.864;2022-08-14T08:47:41;19.15;;;11.65;;
71351;SDS011;59159;51.652;4.864;2022-08-14T08:50:21;18.77;;;10.10;;
71351;SDS011;59159;51.652;4.864;2022-08-14T08:52:53;17.73;;;10.43;;
71351;SDS011;59159;51.652;4.864;2022-08-14T08:55:30;23.27;;;12.13;;
71351;SDS011;59159;51.652;4.864;2022-08-14T08:57:57;22.70;;;11.35;;
71351;SDS011;59159;51.652;4.864;2022-08-14T09:00:23;23.38;;;12.25;;
71351;SDS011;59159;51.652;4.864;2022-08-14T09:02:53;23.37;;;10.80;;
71351;SDS011;59159;51.652;4.864;2022-08-14T09:05:21;23.90;;;12.77;;
71351;SDS011;59159;51.652;4.864;2022-08-14T09:07:47;23.52;;;11.77;;
71351;SDS011;59159;51.652;4.864;2022-08-14T09:10:13;19.50;;;10.97;;
71351;SDS011;59159;51.652;4.864;2022-08-14T09:12:39;22.05;;;13.02;;
71351;SDS011;59159;51.652;4.864;2022-08-14T09:15:06;22.58;;;11.18;;
71351;SDS011;59159;51.652;4.864;2022-08-14T09:17:33;19.37;;;11.20;;
71351;SDS011;59159;51.652;4.864;2022-08-14T09:20:00;23.50;;;12.55;;
71351;SDS011;59159;51.652;4.864;2022-08-14T09:22:27;23.00;;;11.93;;
71351;SDS011;59159;51.652;4.864;2022-08-14T09:24:53;24.23;;;11.73;;
71351;SDS011;59159;51.652;4.864;2022-08-14T09:27:19;22.10;;;11.47;;
71351;SDS011;59159;51.652;4.864;2022-08-14T09:29:46;21.75;;;12.57;;
71351;SDS011;59159;51.652;4.864;2022-08-14T09:32:12;23.60;;;12.32;;
71351;SDS011;59159;51.652;4.864;2022-08-14T09:42:31;19.60;;;11.43;;
71351;SDS011;59159;51.652;4.864;2022-08-14T09:47:49;21.45;;;11.23;;
71351;SDS011;59159;51.652;4.864;2022-08-14T09:50:20;23.65;;;11.48;;
71351;SDS011;59159;51.652;4.864;2022-08-14T09:55:39;20.63;;;10.63;;
71351;SDS011;59159;51.652;4.864;2022-08-14T10:00:46;18.23;;;10.60;;
71351;SDS011;59159;51.652;4.864;2022-08-14T10:03:23;23.83;;;10.98;;
71351;SDS011;59159;51.652;4.864;2022-08-14T10:05:49;18.88;;;9.32;;
71351;SDS011;59159;51.652;4.864;2022-08-14T10:08:18;21.13;;;10.23;;
71351;SDS011;59159;51.652;4.864;2022-08-14T10:10:45;18.30;;;9.63;;
71351;SDS011;59159;51.652;4.864;2022-08-14T10:13:24;19.95;;;10.13;;
71351;SDS011;59159;51.652;4.864;2022-08-14T10:15:50;18.52;;;10.07;;
71351;SDS011;59159;51.652;4.864;2022-08-14T10:18:25;19.13;;;9.00;;
71351;SDS011;59159;51.652;4.864;2022-08-14T10:20:55;18.27;;;9.70;;
71351;SDS011;59159;51.652;4.864;2022-08-14T10:23:23;18.85;;;10.35;;
71351;SDS011;59159;51.652;4.864;2022-08-14T10:25:51;18.10;;;9.70;;
71351;SDS011;59159;51.652;4.864;2022-08-14T10:28:17;19.25;;;8.63;;
71351;SDS011;59159;51.652;4.864;2022-08-14T10:30:45;15.95;;;8.43;;
71351;SDS011;59159;51.652;4.864;2022-08-14T10:33:24;15.00;;;8.27;;
71351;SDS011;59159;51.652;4.864;2022-08-14T10:35:50;15.63;;;8.40;;
71351;SDS011;59159;51.652;4.864;2022-08-14T10:38:26;17.75;;;8.68;;
71351;SDS011;59159;51.652;4.864;2022-08-14T10:40:52;15.35;;;8.88;;
71351;SDS011;59159;51.652;4.864;2022-08-14T10:43:19;17.57;;;8.27;;
71351;SDS011;59159;51.652;4.864;2022-08-14T10:45:56;17.80;;;8.52;;
71351;SDS011;59159;51.652;4.864;2022-08-14T10:48:22;13.48;;;7.72;;
71351;SDS011;59159;51.652;4.864;2022-08-14T10:50:48;13.70;;;8.13;;
71351;SDS011;59159;51.652;4.864;2022-08-14T10:53:27;15.25;;;7.28;;
71351;SDS011;59159;51.652;4.864;2022-08-14T10:55:56;15.18;;;7.38;;
71351;SDS011;59159;51.652;4.864;2022-08-14T10:58:29;16.30;;;7.17;;
71351;SDS011;59159;51.652;4.864;2022-08-14T11:00:59;12.45;;;6.30;;
71351;SDS011;59159;51.652;4.864;2022-08-14T11:03:39;10.52;;;5.93;;
71351;SDS011;59159;51.652;4.864;2022-08-14T11:06:12;10.20;;;5.82;;
71351;SDS011;59159;51.652;4.864;2022-08-14T11:08:40;11.00;;;6.43;;
71351;SDS011;59159;51.652;4.864;2022-08-14T11:11:06;8.48;;;5.63;;
71351;SDS011;59159;51.652;4.864;2022-08-14T11:13:32;9.27;;;5.72;;
71351;SDS011;59159;51.652;4.864;2022-08-14T11:15:59;8.33;;;4.93;;
71351;SDS011;59159;51.652;4.864;2022-08-14T11:18:26;7.50;;;5.00;;
71351;SDS011;59159;51.652;4.864;2022-08-14T11:20:56;8.10;;;5.25;;
71351;SDS011;59159;51.652;4.864;2022-08-14T11:23:33;8.27;;;5.30;;
71351;SDS011;59159;51.652;4.864;2022-08-14T11:26:01;10.30;;;5.20;;
71351;SDS011;59159;51.652;4.864;2022-08-14T11:28:30;8.00;;;4.93;;
71351;SDS011;59159;51.652;4.864;2022-08-14T11:30:57;7.93;;;4.90;;
71351;SDS011;59159;51.652;4.864;2022-08-14T11:33:25;7.10;;;4.60;;
71351;SDS011;59159;51.652;4.864;2022-08-14T11:35:55;7.18;;;4.10;;
71351;SDS011;59159;51.652;4.864;2022-08-14T11:38:24;7.25;;;4.30;;
71351;SDS011;59159;51.652;4.864;2022-08-14T11:40:50;7.93;;;3.83;;
71351;SDS011;59159;51.652;4.864;2022-08-14T11:43:16;7.40;;;4.40;;
71351;SDS011;59159;51.652;4.864;2022-08-14T11:45:46;6.85;;;4.05;;
71351;SDS011;59159;51.652;4.864;2022-08-14T11:48:21;6.97;;;3.97;;
71351;SDS011;59159;51.652;4.864;2022-08-14T11:50:48;7.75;;;3.50;;
71351;SDS011;59159;51.652;4.864;2022-08-14T11:53:18;6.18;;;3.80;;
71351;SDS011;59159;51.652;4.864;2022-08-14T11:55:44;6.72;;;3.45;;
71351;SDS011;59159;51.652;4.864;2022-08-14T11:58:10;6.10;;;3.70;;
71351;SDS011;59159;51.652;4.864;2022-08-14T12:00:50;9.80;;;3.70;;
71351;SDS011;59159;51.652;4.864;2022-08-14T12:03:17;6.57;;;3.60;;
71351;SDS011;59159;51.652;4.864;2022-08-14T12:05:43;7.30;;;3.33;;
71351;SDS011;59159;51.652;4.864;2022-08-14T12:08:10;8.30;;;3.70;;
71351;SDS011;59159;51.652;4.864;2022-08-14T12:10:38;5.85;;;3.42;;
71351;SDS011;59159;51.652;4.864;2022-08-14T12:15:36;7.28;;;3.47;;
71351;SDS011;59159;51.652;4.864;2022-08-14T12:18:03;13.00;;;4.20;;
71351;SDS011;59159;51.652;4.864;2022-08-14T12:20:39;6.20;;;3.50;;
71351;SDS011;59159;51.652;4.864;2022-08-14T12:23:19;6.40;;;3.40;;
71351;SDS011;59159;51.652;4.864;2022-08-14T12:25:46;6.88;;;3.80;;
71351;SDS011;59159;51.652;4.864;2022-08-14T12:28:12;7.93;;;3.70;;
71351;SDS011;59159;51.652;4.864;2022-08-14T12:30:40;6.10;;;3.30;;
71351;SDS011;59159;51.652;4.864;2022-08-14T12:33:20;6.00;;;3.47;;
71351;SDS011;59159;51.652;4.864;2022-08-14T12:35:49;6.45;;;3.70;;
71351;SDS011;59159;51.652;4.864;2022-08-14T12:38:15;6.47;;;3.70;;
71351;SDS011;59159;51.652;4.864;2022-08-14T12:40:45;6.55;;;3.78;;
71351;SDS011;59159;51.652;4.864;2022-08-14T12:43:12;6.85;;;3.83;;
71351;SDS011;59159;51.652;4.864;2022-08-14T12:45:38;7.30;;;3.60;;
71351;SDS011;59159;51.652;4.864;2022-08-14T12:48:04;7.87;;;3.90;;
71351;SDS011;59159;51.652;4.864;2022-08-14T12:50:34;7.05;;;3.70;;
71351;SDS011;59159;51.652;4.864;2022-08-14T12:53:00;6.60;;;3.70;;
71351;SDS011;59159;51.652;4.864;2022-08-14T12:55:26;6.40;;;3.70;;
71351;SDS011;59159;51.652;4.864;2022-08-14T12:57:52;6.75;;;4.05;;
71351;SDS011;59159;51.652;4.864;2022-08-14T13:00:23;6.75;;;3.67;;
71351;SDS011;59159;51.652;4.864;2022-08-14T13:02:50;7.57;;;3.57;;
71351;SDS011;59159;51.652;4.864;2022-08-14T13:05:16;7.05;;;3.55;;
71351;SDS011;59159;51.652;4.864;2022-08-14T13:07:42;7.07;;;4.20;;
71351;SDS011;59159;51.652;4.864;2022-08-14T13:10:09;7.55;;;4.00;;
71351;SDS011;59159;51.652;4.864;2022-08-14T13:12:38;7.30;;;3.73;;
71351;SDS011;59159;51.652;4.864;2022-08-14T13:15:05;7.28;;;4.00;;
71351;SDS011;59159;51.652;4.864;2022-08-14T13:17:31;7.50;;;4.25;;
71351;SDS011;59159;51.652;4.864;2022-08-14T13:19:59;8.73;;;3.57;;
71351;SDS011;59159;51.652;4.864;2022-08-14T13:22:26;14.77;;;4.25;;
71351;SDS011;59159;51.652;4.864;2022-08-14T13:24:53;7.72;;;3.78;;
71351;SDS011;59159;51.652;4.864;2022-08-14T13:27:21;7.27;;;3.93;;
71351;SDS011;59159;51.652;4.864;2022-08-14T13:29:47;7.10;;;3.85;;
71351;SDS011;59159;51.652;4.864;2022-08-14T13:32:16;10.63;;;3.80;;
71351;SDS011;59159;51.652;4.864;2022-08-14T13:34:42;8.73;;;4.00;;
71351;SDS011;59159;51.652;4.864;2022-08-14T13:37:09;6.30;;;3.80;;
71351;SDS011;59159;51.652;4.864;2022-08-14T13:39:35;6.43;;;3.63;;
71351;SDS011;59159;51.652;4.864;2022-08-14T13:42:04;7.53;;;3.83;;
71351;SDS011;59159;51.652;4.864;2022-08-14T13:44:35;6.63;;;3.90;;
71351;SDS011;59159;51.652;4.864;2022-08-14T13:47:02;6.50;;;3.78;;
71351;SDS011;59159;51.652;4.864;2022-08-14T13:49:31;7.65;;;4.30;;
71351;SDS011;59159;51.652;4.864;2022-08-14T13:51:57;6.97;;;3.90;;
71351;SDS011;59159;51.652;4.864;2022-08-14T13:54:23;6.70;;;3.92;;
71351;SDS011;59159;51.652;4.864;2022-08-14T13:56:55;6.90;;;3.80;;
71351;SDS011;59159;51.652;4.864;2022-08-14T13:59:24;6.57;;;3.72;;
71351;SDS011;59159;51.652;4.864;2022-08-14T14:01:53;7.60;;;3.80;;
71351;SDS011;59159;51.652;4.864;2022-08-14T14:04:20;9.38;;;4.25;;
71351;SDS011;59159;51.652;4.864;2022-08-14T14:06:48;8.73;;;3.53;;
71351;SDS011;59159;51.652;4.864;2022-08-14T14:09:15;7.30;;;3.70;;
71351;SDS011;59159;51.652;4.864;2022-08-14T14:11:45;6.30;;;3.97;;
71351;SDS011;59159;51.652;4.864;2022-08-14T14:14:11;7.10;;;3.83;;
71351;SDS011;59159;51.652;4.864;2022-08-14T14:16:38;7.83;;;3.80;;
71351;SDS011;59159;51.652;4.864;2022-08-14T14:19:04;6.75;;;3.53;;
71351;SDS011;59159;51.652;4.864;2022-08-14T14:21:32;7.45;;;3.90;;
71351;SDS011;59159;51.652;4.864;2022-08-14T14:23:58;6.55;;;3.65;;
71351;SDS011;59159;51.652;4.864;2022-08-14T14:26:25;8.40;;;4.03;;
71351;SDS011;59159;51.652;4.864;2022-08-14T14:28:55;6.85;;;3.92;;
71351;SDS011;59159;51.652;4.864;2022-08-14T14:31:22;6.82;;;3.80;;
71351;SDS011;59159;51.652;4.864;2022-08-14T14:33:48;9.33;;;4.43;;
71351;SDS011;59159;51.652;4.864;2022-08-14T14:36:22;8.18;;;4.28;;
71351;SDS011;59159;51.652;4.864;2022-08-14T14:39:00;7.88;;;3.90;;
71351;SDS011;59159;51.652;4.864;2022-08-14T14:41:28;7.10;;;4.37;;
71351;SDS011;59159;51.652;4.864;2022-08-14T14:43:55;8.20;;;4.63;;
71351;SDS011;59159;51.652;4.864;2022-08-14T14:46:22;8.05;;;4.22;;
71351;SDS011;59159;51.652;4.864;2022-08-14T14:48:48;7.05;;;4.63;;
71351;SDS011;59159;51.652;4.864;2022-08-14T14:51:15;8.53;;;4.40;;
71351;SDS011;59159;51.652;4.864;2022-08-14T14:53:42;7.03;;;4.57;;
71351;SDS011;59159;51.652;4.864;2022-08-14T14:56:09;7.80;;;4.70;;
71351;SDS011;59159;51.652;4.864;2022-08-14T14:58:35;8.30;;;4.60;;
71351;SDS011;59159;51.652;4.864;2022-08-14T15:01:03;7.60;;;4.55;;
71351;SDS011;59159;51.652;4.864;2022-08-14T15:03:29;8.93;;;4.80;;
71351;SDS011;59159;51.652;4.864;2022-08-14T15:05:56;8.03;;;4.70;;
71351;SDS011;59159;51.652;4.864;2022-08-14T15:08:23;7.75;;;4.68;;
71351;SDS011;59159;51.652;4.864;2022-08-14T15:10:49;9.73;;;4.90;;
71351;SDS011;59159;51.652;4.864;2022-08-14T15:13:17;6.80;;;4.43;;
71351;SDS011;59159;51.652;4.864;2022-08-14T15:15:43;6.87;;;4.30;;